Time;durP1;ratioP1;P1;durP2;ratioP2;P2;SDS_P1;SDS_P2;PMS_P1;PMS_P2;Temp;Humidity;BMP_temperature;BMP_pressure;BME280_temperature;BME280_humidity;BME280_pressure;Samples;Min_cycle;Max_cycle;Signal;HPM_P1;HPM_P2
2021/03/23 00:00:46;;;;;;;10.33;5.53;;;1.60;99.90;;;;;;5082641;28;20153;-80
2021/03/23 00:03:13;;;;;;;14.10;5.63;;;1.30;99.90;;;;;;5082756;28;20410;-80
2021/03/23 00:05:40;;;;;;;13.93;5.07;;;1.20;99.90;;;;;;5065516;28;21002;-80
2021/03/23 00:08:26;;;;;;;11.60;5.60;;;1.30;99.90;;;;;;5065100;28;20442;-80
2021/03/23 00:10:52;;;;;;;8.73;5.63;;;1.30;99.90;;;;;;5075351;28;20473;-80
2021/03/23 00:13:18;;;;;;;10.93;5.67;;;1.20;99.90;;;;;;5083612;28;20426;-80
2021/03/23 00:15:45;;;;;;;13.53;7.10;;;1.20;99.90;;;;;;5082446;28;20458;-80
2021/03/23 00:18:11;;;;;;;8.50;5.27;;;1.10;99.90;;;;;;5065420;28;20439;-80
2021/03/23 00:20:38;;;;;;;12.77;6.40;;;1.80;99.90;;;;;;5083068;28;20430;-80
2021/03/23 00:23:04;;;;;;;11.33;6.03;;;2.10;99.90;;;;;;5088513;28;20411;-79
2021/03/23 00:25:30;;;;;;;13.63;6.30;;;1.00;99.90;;;;;;5094163;28;20965;-80
2021/03/23 00:27:56;;;;;;;9.63;5.40;;;0.90;99.90;;;;;;5094639;28;20430;-80
2021/03/23 00:30:22;;;;;;;9.80;6.10;;;0.90;99.90;;;;;;5085081;28;20195;-80
2021/03/23 00:32:47;;;;;;;10.93;5.70;;;0.80;99.90;;;;;;5060438;28;20176;-79
2021/03/23 00:35:14;;;;;;;10.57;5.43;;;0.80;99.90;;;;;;5078984;28;20200;-79
2021/03/23 00:37:40;;;;;;;10.47;5.53;;;0.80;99.90;;;;;;5078702;28;20671;-79
2021/03/23 00:40:10;;;;;;;8.70;5.60;;;0.80;99.90;;;;;;5078591;28;20407;-79
2021/03/23 00:42:36;;;;;;;11.23;5.60;;;0.70;99.90;;;;;;5060869;28;20404;-80
2021/03/23 00:45:04;;;;;;;11.37;5.97;;;1.20;99.90;;;;;;5060246;28;20794;-79
2021/03/23 00:47:29;;;;;;;8.53;5.60;;;0.60;99.90;;;;;;5078073;28;20200;-79
2021/03/23 00:49:55;;;;;;;14.20;6.47;;;0.60;99.90;;;;;;5078433;28;20415;-80
2021/03/23 00:52:21;;;;;;;45.43;20.10;;;0.50;99.90;;;;;;5060224;28;20635;-80
2021/03/23 00:54:46;;;;;;;39.30;19.17;;;0.60;99.90;;;;;;5059666;28;20181;-79
2021/03/23 00:57:12;;;;;;;89.57;36.73;;;0.60;99.90;;;;;;5059814;28;20755;-79
2021/03/23 00:59:38;;;;;;;80.93;40.07;;;0.60;99.90;;;;;;5077770;28;20639;-79
2021/03/23 01:02:04;;;;;;;27.30;13.47;;;1.40;99.90;;;;;;5059561;28;20181;-79
2021/03/23 01:04:29;;;;;;;25.00;13.47;;;0.60;99.90;;;;;;5060294;28;20173;-79
2021/03/23 01:06:55;;;;;;;13.37;7.57;;;1.00;99.90;;;;;;5077607;28;20201;-79
2021/03/23 01:09:21;;;;;;;12.33;6.30;;;0.60;99.90;;;;;;5077777;28;20178;-80
2021/03/23 01:11:47;;;;;;;9.10;5.60;;;0.60;99.90;;;;;;5059649;28;20188;-80
2021/03/23 01:14:12;;;;;;;11.17;5.80;;;0.60;99.90;;;;;;5077509;28;20175;-79
2021/03/23 01:16:38;;;;;;;10.00;6.10;;;1.20;99.90;;;;;;5059313;28;20213;-79
2021/03/23 01:19:04;;;;;;;9.83;5.60;;;0.70;99.90;;;;;;5077514;28;20169;-80
2021/03/23 01:21:29;;;;;;;15.13;5.30;;;0.80;99.90;;;;;;5077165;28;20270;-80
2021/03/23 01:23:55;;;;;;;12.40;5.53;;;0.80;99.90;;;;;;5077553;28;20184;-80
2021/03/23 01:26:20;;;;;;;10.53;5.90;;;0.60;99.90;;;;;;5060954;28;20251;-80
2021/03/23 01:28:46;;;;;;;12.03;5.97;;;0.60;99.90;;;;;;5079188;28;20181;-79
2021/03/23 01:31:12;;;;;;;10.20;5.20;;;0.70;99.90;;;;;;5080103;28;20173;-80
2021/03/23 01:33:38;;;;;;;11.57;4.83;;;0.60;99.90;;;;;;5079066;28;20586;-79
2021/03/23 01:36:05;;;;;;;7.90;4.97;;;0.50;99.90;;;;;;5060943;28;20209;-80
2021/03/23 01:38:31;;;;;;;12.37;5.43;;;0.50;99.90;;;;;;5044011;28;20457;-79
2021/03/23 01:40:56;;;;;;;12.00;5.27;;;0.50;99.90;;;;;;5079764;28;20414;-80
2021/03/23 01:43:28;;;;;;;12.90;5.57;;;0.60;99.90;;;;;;5077867;28;20173;-80
2021/03/23 01:45:59;;;;;;;11.20;5.70;;;0.60;99.90;;;;;;5077736;28;20173;-80
2021/03/23 01:48:33;;;;;;;13.43;5.80;;;0.60;99.90;;;;;;5077468;28;20421;-80
2021/03/23 01:51:01;;;;;;;15.17;5.73;;;0.60;99.90;;;;;;5058858;28;20906;-79
2021/03/23 01:53:34;;;;;;;10.30;5.63;;;0.60;99.90;;;;;;5077509;28;20422;-79
2021/03/23 01:56:00;;;;;;;12.67;6.20;;;0.50;99.90;;;;;;5059371;28;20447;-79
2021/03/23 01:58:28;;;;;;;10.20;5.53;;;0.50;99.90;;;;;;5059033;28;20423;-80
2021/03/23 02:00:54;;;;;;;9.97;5.80;;;0.40;99.90;;;;;;5077623;28;20771;-79
2021/03/23 02:03:21;;;;;;;14.37;5.70;;;0.60;99.90;;;;;;5077379;28;20414;-79
2021/03/23 02:05:58;;;;;;;11.50;5.40;;;1.00;99.90;;;;;;5058982;28;20549;-80
2021/03/23 02:08:24;;;;;;;9.60;5.70;;;0.40;99.90;;;;;;5069278;28;20415;-80
2021/03/23 02:10:53;;;;;;;11.53;5.63;;;0.40;99.90;;;;;;5077063;28;20415;-80
2021/03/23 02:13:20;;;;;;;11.13;5.70;;;0.80;99.90;;;;;;5077448;28;20774;-79
2021/03/23 02:15:46;;;;;;;9.23;5.13;;;0.40;99.90;;;;;;5058960;28;20454;-80
2021/03/23 02:18:17;;;;;;;15.00;6.10;;;0.40;99.90;;;;;;5077042;28;20581;-80
2021/03/23 02:21:01;;;;;;;9.60;5.87;;;0.40;99.90;;;;;;5077337;28;20208;-79
2021/03/23 02:23:31;;;;;;;10.10;5.30;;;0.40;99.90;;;;;;5077863;28;20407;-80
2021/03/23 02:25:57;;;;;;;13.97;5.33;;;0.40;99.90;;;;;;5077268;28;20407;-80
2021/03/23 02:28:23;;;;;;;12.07;6.27;;;0.30;99.90;;;;;;5058879;28;20790;-80
2021/03/23 02:30:52;;;;;;;13.60;5.27;;;0.80;99.90;;;;;;5077466;28;20192;-79
2021/03/23 02:33:18;;;;;;;15.30;5.63;;;0.50;99.90;;;;;;5077020;28;20411;-79
2021/03/23 02:35:44;;;;;;;12.00;5.97;;;0.40;99.90;;;;;;5058857;28;20493;-79
2021/03/23 02:38:11;;;;;;;12.87;5.53;;;0.40;99.90;;;;;;5058871;28;20471;-79
2021/03/23 02:40:38;;;;;;;8.30;4.80;;;0.40;99.90;;;;;;5059135;28;20454;-79
2021/03/23 02:43:04;;;;;;;10.10;5.37;;;0.30;99.90;;;;;;5059370;28;20441;-80
2021/03/23 02:45:30;;;;;;;8.33;4.93;;;0.40;99.90;;;;;;5077536;28;20901;-80
2021/03/23 02:47:56;;;;;;;9.00;4.90;;;0.20;99.90;;;;;;5058648;28;20698;-80
2021/03/23 02:50:21;;;;;;;13.30;6.63;;;0.20;99.90;;;;;;5059587;28;20423;-80
2021/03/23 02:52:47;;;;;;;14.67;5.50;;;0.20;99.90;;;;;;5059176;28;20548;-80
2021/03/23 02:55:14;;;;;;;8.83;5.27;;;1.10;99.90;;;;;;5059336;28;20227;-79
2021/03/23 02:57:39;;;;;;;12.07;4.93;;;0.10;99.90;;;;;;5059743;28;20687;-80
2021/03/23 03:00:07;;;;;;;10.70;5.93;;;1.70;99.90;;;;;;5059661;28;20485;-80
2021/03/23 03:02:33;;;;;;;16.97;5.50;;;0.10;99.90;;;;;;5077592;28;20177;-79
2021/03/23 03:04:59;;;;;;;12.50;6.10;;;0.10;99.90;;;;;;5077660;28;20941;-80
2021/03/23 03:07:24;;;;;;;17.20;5.93;;;1.60;99.90;;;;;;5077518;28;20197;-79
2021/03/23 03:09:50;;;;;;;11.63;5.73;;;0.70;99.90;;;;;;5059638;28;20189;-80
2021/03/23 03:12:15;;;;;;;16.87;6.43;;;0.90;99.90;;;;;;5060378;28;20181;-80
2021/03/23 03:14:41;;;;;;;11.37;5.83;;;0.00;99.90;;;;;;5078117;28;20179;-80
2021/03/23 03:17:07;;;;;;;13.20;6.07;;;0.00;99.90;;;;;;5080223;28;20189;-79
2021/03/23 03:19:33;;;;;;;14.83;5.87;;;0.00;99.90;;;;;;5084793;28;20168;-80
2021/03/23 03:21:58;;;;;;;9.43;5.27;;;0.00;99.90;;;;;;5084164;28;20188;-79
2021/03/23 03:24:24;;;;;;;10.97;5.70;;;0.00;99.90;;;;;;5084575;28;20172;-79
2021/03/23 03:26:49;;;;;;;14.50;6.37;;;0.60;99.90;;;;;;5084435;28;20199;-79
2021/03/23 03:29:15;;;;;;;10.87;5.77;;;0.00;99.90;;;;;;5084172;28;20241;-79
2021/03/23 03:31:41;;;;;;;11.23;6.00;;;0.60;99.90;;;;;;5072445;28;20204;-80
2021/03/23 03:34:06;;;;;;;16.50;5.93;;;1.00;99.90;;;;;;5096243;28;20637;-80
2021/03/23 03:36:34;;;;;;;11.40;5.50;;;-0.10;99.90;;;;;;5097077;28;20216;-80
2021/03/23 03:39:00;;;;;;;11.17;6.13;;;-0.20;99.90;;;;;;5087075;28;20237;-79
2021/03/23 03:41:26;;;;;;;13.63;6.20;;;-0.20;99.90;;;;;;5083942;28;20418;-79
2021/03/23 03:43:53;;;;;;;8.20;5.10;;;-0.20;99.90;;;;;;5083028;28;20180;-79
2021/03/23 03:46:19;;;;;;;18.13;5.90;;;-0.20;99.90;;;;;;5066081;28;20446;-80
2021/03/23 03:48:45;;;;;;;11.17;5.97;;;-0.20;99.90;;;;;;5064894;28;20789;-80
2021/03/23 03:51:10;;;;;;;13.57;5.97;;;-0.10;99.90;;;;;;5081750;28;20916;-79
2021/03/23 03:53:36;;;;;;;14.83;6.07;;;-0.20;99.90;;;;;;5063149;28;20185;-79
2021/03/23 03:56:02;;;;;;;9.50;5.53;;;-0.20;99.90;;;;;;5061811;28;20211;-79
2021/03/23 03:58:29;;;;;;;16.27;6.07;;;-0.20;99.90;;;;;;5061900;28;20177;-79
2021/03/23 04:00:55;;;;;;;13.03;6.23;;;-0.30;99.90;;;;;;5062068;28;20175;-79
2021/03/23 04:03:23;;;;;;;12.73;6.20;;;-0.30;99.90;;;;;;5080182;28;20414;-79
2021/03/23 04:05:51;;;;;;;12.67;6.57;;;0.20;99.90;;;;;;5062060;28;20419;-79
2021/03/23 04:08:20;;;;;;;11.83;5.80;;;-0.20;99.90;;;;;;5061649;28;20443;-79
2021/03/23 04:10:47;;;;;;;16.03;7.00;;;0.40;99.90;;;;;;5061691;28;20508;-79
2021/03/23 04:13:13;;;;;;;12.63;6.20;;;1.00;99.90;;;;;;5079489;28;20418;-80
2021/03/23 04:15:41;;;;;;;18.17;7.63;;;-0.30;99.90;;;;;;5080299;28;20944;-79
2021/03/23 04:18:09;;;;;;;13.83;7.00;;;-0.30;99.90;;;;;;5079938;28;20226;-80
2021/03/23 04:20:35;;;;;;;17.37;6.77;;;-0.30;99.90;;;;;;5061660;28;20923;-79
2021/03/23 04:23:01;;;;;;;16.03;6.53;;;-0.30;99.90;;;;;;5079833;28;20430;-80
2021/03/23 04:25:30;;;;;;;13.07;6.20;;;-0.40;99.90;;;;;;5080292;28;20415;-79
2021/03/23 04:27:56;;;;;;;12.83;5.90;;;-0.40;99.90;;;;;;5079097;28;20197;-79
2021/03/23 07:18:10;;;;;;;15.57;8.17;;;1.60;99.90;;;;;;5118837;27;20528;-79
2021/03/23 07:20:38;;;;;;;15.90;8.80;;;1.80;99.90;;;;;;5118376;28;20952;-79
2021/03/23 07:23:21;;;;;;;14.07;9.00;;;2.00;99.90;;;;;;5119186;28;20799;-79
2021/03/23 07:25:47;;;;;;;21.83;10.23;;;2.20;99.90;;;;;;5117115;28;20443;-79
2021/03/23 07:28:27;;;;;;;18.33;9.50;;;2.50;99.90;;;;;;5118762;28;20421;-79
2021/03/23 07:31:01;;;;;;;18.03;10.17;;;3.00;99.90;;;;;;5118455;28;20438;-79
2021/03/23 07:33:54;;;;;;;18.23;10.20;;;4.00;99.90;;;;;;5118155;28;20771;-80
2021/03/23 07:36:28;;;;;;;16.70;9.23;;;5.00;99.90;;;;;;5117205;28;20537;-79
2021/03/23 07:39:09;;;;;;;15.90;9.20;;;5.70;99.90;;;;;;5117502;28;20395;-80
2021/03/23 07:41:40;;;;;;;12.80;8.47;;;5.90;99.90;;;;;;5116219;28;20927;-79
2021/03/23 07:44:25;;;;;;;12.47;8.57;;;6.40;99.90;;;;;;5115909;28;20416;-79
2021/03/23 07:46:59;;;;;;;12.90;9.07;;;6.90;99.90;;;;;;5115839;28;20447;-80
2021/03/23 07:49:33;;;;;;;13.37;7.07;;;7.20;99.90;;;;;;5117829;28;20432;-79
2021/03/23 07:52:05;;;;;;;16.30;8.63;;;7.10;99.90;;;;;;5117138;28;20604;-80
2021/03/23 07:54:34;;;;;;;16.57;8.20;;;7.10;99.90;;;;;;5116233;28;20191;-80
2021/03/23 07:57:03;;;;;;;17.97;9.47;;;7.20;99.90;;;;;;5118091;28;20495;-79
2021/03/23 07:59:35;;;;;;;17.87;9.07;;;7.10;99.90;;;;;;5117092;28;20179;-80
2021/03/23 08:02:37;;;;;;;14.93;8.57;;;7.00;99.90;;;;;;5117708;28;20175;-80
2021/03/23 08:05:26;;;;;;;14.63;8.77;;;7.20;99.90;;;;;;5115327;28;20160;-80
2021/03/23 08:08:17;;;;;;;15.17;8.87;;;7.70;99.90;;;;;;5115857;28;20228;-79
2021/03/23 08:11:03;;;;;;;16.50;8.27;;;7.80;99.90;;;;;;5116057;28;20165;-80
2021/03/23 08:13:53;;;;;;;11.83;7.90;;;7.60;99.90;;;;;;5117147;28;20200;-79
2021/03/23 08:16:19;;;;;;;14.40;8.17;;;7.60;99.90;;;;;;5115356;28;20303;-80
2021/03/23 08:19:05;;;;;;;13.03;8.57;;;7.90;99.90;;;;;;5116739;28;20183;-79
2021/03/23 08:21:43;;;;;;;13.07;7.57;;;8.50;99.90;;;;;;5117406;28;20168;-79
2021/03/23 08:24:20;;;;;;;12.37;8.23;;;8.40;99.90;;;;;;5115258;28;20535;-79
2021/03/23 08:27:03;;;;;;;12.10;7.43;;;8.80;99.90;;;;;;5117733;28;20222;-79
2021/03/23 08:29:34;;;;;;;11.83;7.53;;;8.80;99.90;;;;;;5098567;28;20172;-79
2021/03/23 08:32:21;;;;;;;9.57;5.47;;;8.90;99.90;;;;;;5104410;28;20164;-79
2021/03/23 08:35:14;;;;;;;12.30;7.10;;;9.10;99.90;;;;;;5102495;28;20216;-79
2021/03/23 08:37:58;;;;;;;10.40;6.80;;;9.10;99.90;;;;;;5102119;28;20214;-79
2021/03/23 08:40:49;;;;;;;15.90;7.70;;;9.90;99.90;;;;;;5102166;28;20167;-80
2021/03/23 08:43:27;;;;;;;11.17;6.93;;;10.40;99.10;;;;;;5102368;28;20175;-80
2021/03/23 08:45:55;;;;;;;13.67;7.23;;;10.70;99.40;;;;;;5103523;28;20160;-78
2021/03/23 08:48:45;;;;;;;12.93;7.60;;;10.60;95.70;;;;;;5102104;28;20263;-78
2021/03/23 08:51:14;;;;;;;14.40;7.00;;;9.70;95.80;;;;;;5102488;28;20165;-80
2021/03/23 08:53:54;;;;;;;12.60;7.10;;;9.70;99.30;;;;;;5104450;28;20176;-79
2021/03/23 08:56:42;;;;;;;10.13;6.17;;;10.00;99.90;;;;;;5102561;28;20235;-79
2021/03/23 08:59:31;;;;;;;11.10;6.87;;;10.10;95.70;;;;;;5103869;28;20240;-79
2021/03/23 09:02:20;;;;;;;10.03;6.50;;;10.20;96.80;;;;;;5104461;28;20216;-80
2021/03/23 09:04:51;;;;;;;10.00;5.27;;;9.90;94.60;;;;;;5093506;28;20184;-79
2021/03/23 09:07:17;;;;;;;8.67;5.60;;;9.90;91.90;;;;;;5104063;28;20198;-80
2021/03/23 09:09:49;;;;;;;14.23;6.23;;;10.10;94.00;;;;;;5104086;28;20204;-79
2021/03/23 09:12:41;;;;;;;8.83;6.37;;;9.20;94.10;;;;;;5103364;28;20165;-78
2021/03/23 09:15:16;;;;;;;9.67;6.00;;;8.30;96.70;;;;;;5102664;28;20644;-79
2021/03/23 09:18:12;;;;;;;7.97;5.00;;;7.80;96.00;;;;;;5103539;28;20611;-80
2021/03/23 09:20:38;;;;;;;10.23;5.23;;;7.10;94.70;;;;;;5103835;28;20164;-79
2021/03/23 09:23:16;;;;;;;9.20;5.30;;;6.80;94.30;;;;;;5104427;28;20165;-79
2021/03/23 09:25:58;;;;;;;11.00;5.53;;;6.40;96.20;;;;;;5106098;28;20229;-79
2021/03/23 09:28:33;;;;;;;12.23;5.00;;;6.30;97.10;;;;;;5104308;28;20156;-79
2021/03/23 09:31:20;;;;;;;7.20;5.20;;;5.80;97.60;;;;;;5105107;28;20265;-78
2021/03/23 09:33:53;;;;;;;10.73;5.43;;;5.60;99.20;;;;;;5065025;28;20547;-79
2021/03/23 09:36:48;;;;;;;10.60;6.07;;;5.60;99.90;;;;;;5106505;28;20291;-79
2021/03/23 09:39:17;;;;;;;102.67;52.80;;;5.60;99.90;;;;;;5105949;28;20148;-78
2021/03/23 09:41:51;;;;;;;18.13;11.10;;;5.60;99.90;;;;;;5105694;28;20168;-79
2021/03/23 09:44:17;;;;;;;11.50;6.03;;;5.60;99.90;;;;;;5105674;28;20174;-78
2021/03/23 09:46:52;;;;;;;8.70;4.60;;;5.60;99.80;;;;;;5103090;28;20192;-78
2021/03/23 09:49:20;;;;;;;5.53;3.27;;;5.60;97.60;;;;;;5103324;28;20160;-78
2021/03/23 09:51:50;;;;;;;7.63;3.20;;;5.60;93.50;;;;;;5100134;28;20176;-78
2021/03/23 09:54:21;;;;;;;6.80;4.17;;;5.60;94.20;;;;;;5097542;28;20176;-78
2021/03/23 09:56:49;;;;;;;10.30;4.77;;;5.60;96.30;;;;;;5096324;28;20774;-78
2021/03/23 09:59:21;;;;;;;8.20;6.13;;;5.50;96.30;;;;;;5098766;28;20164;-78
2021/03/23 10:01:58;;;;;;;9.07;4.93;;;5.40;95.80;;;;;;5101130;28;20167;-78
2021/03/23 10:04:33;;;;;;;9.40;4.80;;;5.40;95.70;;;;;;5103715;28;20155;-78
2021/03/23 10:06:59;;;;;;;5.17;3.23;;;5.50;96.40;;;;;;5103691;28;20204;-79
2021/03/23 10:09:32;;;;;;;7.03;3.80;;;6.40;97.90;;;;;;5101564;28;20180;-79
2021/03/23 10:11:59;;;;;;;5.87;3.73;;;7.80;99.70;;;;;;5104062;28;20153;-79
2021/03/23 10:14:28;;;;;;;6.13;3.53;;;9.00;94.90;;;;;;5103813;28;20179;-79
2021/03/23 10:17:20;;;;;;;5.70;3.80;;;9.60;90.90;;;;;;5103701;28;20211;-79
2021/03/23 10:19:54;;;;;;;6.07;3.13;;;10.30;91.40;;;;;;5102524;28;20529;-79
2021/03/23 10:22:31;;;;;;;5.53;3.40;;;10.60;86.70;;;;;;5104188;28;20164;-79
2021/03/23 10:24:59;;;;;;;6.23;3.97;;;10.90;91.20;;;;;;5104085;28;20174;-79
2021/03/23 10:27:36;;;;;;;6.27;4.00;;;11.20;85.80;;;;;;5104360;28;20283;-80
2021/03/23 10:30:14;;;;;;;6.17;3.67;;;11.20;81.70;;;;;;5103849;28;20173;-80
2021/03/23 10:32:53;;;;;;;6.50;3.83;;;11.00;82.00;;;;;;5104193;28;20199;-80
2021/03/23 10:35:27;;;;;;;7.37;4.70;;;10.80;81.90;;;;;;5102484;28;20177;-80
2021/03/23 10:38:27;;;;;;;8.53;4.40;;;11.10;89.40;;;;;;5102689;28;20196;-80
2021/03/23 10:41:17;;;;;;;6.40;4.30;;;11.50;87.90;;;;;;5102537;28;20182;-79
2021/03/23 10:43:46;;;;;;;9.70;5.30;;;11.60;89.00;;;;;;5102369;28;20177;-80
2021/03/23 10:46:32;;;;;;;8.00;5.20;;;11.40;82.60;;;;;;5103130;28;20224;-79
2021/03/23 10:49:25;;;;;;;8.80;5.37;;;10.60;82.10;;;;;;5103436;28;20153;-80
2021/03/23 10:52:14;;;;;;;8.60;5.20;;;9.50;90.10;;;;;;5103082;28;20614;-79
2021/03/23 10:54:40;;;;;;;8.43;5.37;;;9.10;90.30;;;;;;5087714;28;20261;-79
2021/03/23 10:57:24;;;;;;;8.27;5.20;;;8.70;91.20;;;;;;5100476;28;20235;-79
2021/03/23 10:59:50;;;;;;;8.80;5.27;;;8.10;91.90;;;;;;5099734;28;20251;-79
2021/03/23 11:02:19;;;;;;;10.47;5.27;;;7.90;92.90;;;;;;5100148;28;20208;-78
2021/03/23 11:05:11;;;;;;;8.37;5.33;;;7.80;92.80;;;;;;5098818;28;20287;-79
2021/03/23 11:08:02;;;;;;;9.67;5.23;;;7.80;93.40;;;;;;5098930;28;20231;-78
2021/03/23 11:10:31;;;;;;;9.40;5.53;;;8.10;93.20;;;;;;5099819;28;20152;-78
2021/03/23 11:12:58;;;;;;;11.87;5.73;;;8.60;92.90;;;;;;5100019;28;20573;-78
2021/03/23 11:15:24;;;;;;;10.00;6.20;;;8.70;93.40;;;;;;5097706;28;20181;-79
2021/03/23 11:17:51;;;;;;;12.50;5.90;;;8.50;94.10;;;;;;5099604;28;20214;-78
2021/03/23 11:20:43;;;;;;;9.67;5.73;;;8.70;94.50;;;;;;5098830;28;20236;-79
2021/03/23 11:23:38;;;;;;;10.07;5.70;;;8.70;92.30;;;;;;5094828;28;20226;-79
2021/03/23 11:26:05;;;;;;;8.10;5.57;;;8.80;95.10;;;;;;5097832;28;20560;-79
2021/03/23 11:28:31;;;;;;;9.17;5.30;;;9.00;92.60;;;;;;5096401;28;20184;-79
2021/03/23 11:31:01;;;;;;;9.90;5.73;;;9.20;93.50;;;;;;5099271;28;20195;-79
2021/03/23 11:33:27;;;;;;;14.53;5.60;;;9.80;93.10;;;;;;5100873;28;20529;-79
2021/03/23 11:35:53;;;;;;;11.43;5.70;;;9.80;92.80;;;;;;5101815;28;20258;-80
2021/03/23 11:38:19;;;;;;;9.30;5.50;;;9.80;89.90;;;;;;5098986;28;20286;-80
2021/03/23 11:40:45;;;;;;;9.70;6.13;;;9.60;92.60;;;;;;5083791;28;20180;-79
2021/03/23 11:43:18;;;;;;;9.53;4.80;;;9.90;93.00;;;;;;5081006;28;20181;-79
2021/03/23 11:45:46;;;;;;;8.17;5.00;;;10.70;86.80;;;;;;5079258;28;20192;-79
2021/03/23 11:48:13;;;;;;;9.77;5.57;;;11.40;88.80;;;;;;5080023;28;20193;-79
2021/03/23 11:50:42;;;;;;;9.57;5.77;;;11.80;84.50;;;;;;5098081;28;20222;-79
2021/03/23 11:53:09;;;;;;;9.03;5.70;;;11.50;85.70;;;;;;5100036;28;20204;-79
2021/03/23 11:55:38;;;;;;;9.10;5.50;;;10.90;89.10;;;;;;5098337;28;20226;-79
2021/03/23 11:58:08;;;;;;;7.20;5.03;;;10.30;88.50;;;;;;5100303;28;20193;-79
2021/03/23 12:00:35;;;;;;;8.77;5.60;;;9.80;87.10;;;;;;5100892;28;20232;-79
2021/03/23 12:03:04;;;;;;;11.13;4.67;;;9.10;87.60;;;;;;5100236;28;20253;-78
2021/03/23 12:05:30;;;;;;;8.40;5.37;;;8.70;88.10;;;;;;5103337;28;20180;-78
2021/03/23 12:08:32;;;;;;;7.77;5.00;;;8.50;90.80;;;;;;5104593;28;20207;-79
2021/03/23 12:11:04;;;;;;;9.63;5.73;;;8.50;89.10;;;;;;5104629;28;20196;-78
2021/03/23 12:14:03;;;;;;;10.00;5.83;;;8.50;92.70;;;;;;5105018;28;20173;-79
2021/03/23 12:16:33;;;;;;;8.23;5.30;;;8.70;92.80;;;;;;5104611;28;20208;-80
2021/03/23 12:19:04;;;;;;;9.03;5.90;;;9.00;91.20;;;;;;5106118;28;20176;-79
2021/03/23 12:21:30;;;;;;;7.67;5.23;;;10.60;91.70;;;;;;5105221;28;20269;-79
2021/03/23 12:23:55;;;;;;;8.30;5.20;;;12.20;85.80;;;;;;5105280;28;20582;-80
2021/03/23 12:26:22;;;;;;;8.20;6.00;;;13.30;85.00;;;;;;5106967;28;20206;-79
2021/03/23 12:28:48;;;;;;;5.93;4.60;;;12.10;75.80;;;;;;5107021;28;20199;-80
2021/03/23 12:31:15;;;;;;;7.77;4.73;;;10.90;73.30;;;;;;5104959;28;20204;-79
2021/03/23 12:33:41;;;;;;;7.93;5.57;;;10.50;82.20;;;;;;5119273;28;20212;-78
2021/03/23 12:36:09;;;;;;;9.20;5.33;;;10.20;85.30;;;;;;5124219;28;20186;-79
2021/03/23 12:38:37;;;;;;;8.70;4.90;;;9.90;85.20;;;;;;5127097;28;20180;-80
2021/03/23 12:41:02;;;;;;;10.70;5.67;;;9.70;86.70;;;;;;5119300;28;20503;-80
2021/03/23 12:43:28;;;;;;;7.63;4.80;;;9.50;86.30;;;;;;5117553;28;20187;-79
2021/03/23 12:45:56;;;;;;;7.77;4.87;;;9.40;87.80;;;;;;5112581;28;20528;-80
2021/03/23 12:48:24;;;;;;;10.30;5.20;;;9.80;90.20;;;;;;5120224;28;20338;-78
2021/03/23 12:50:50;;;;;;;7.87;5.60;;;9.50;90.90;;;;;;5123178;28;20258;-79
2021/03/23 12:53:19;;;;;;;9.40;5.70;;;9.50;88.40;;;;;;5114303;28;20229;-78
2021/03/23 12:55:49;;;;;;;11.37;5.73;;;9.50;87.90;;;;;;5099858;28;20168;-78
2021/03/23 12:58:20;;;;;;;10.00;5.10;;;10.10;91.00;;;;;;5098948;28;20212;-78
2021/03/23 13:00:46;;;;;;;7.43;5.27;;;12.40;88.50;;;;;;5119918;28;20190;-78
2021/03/23 13:03:16;;;;;;;9.37;5.23;;;14.30;82.20;;;;;;5110984;28;20229;-77
2021/03/23 13:05:42;;;;;;;8.43;5.17;;;15.40;75.60;;;;;;5101073;28;20174;-80
2021/03/23 13:08:37;;;;;;;9.30;5.10;;;16.00;74.20;;;;;;5118049;28;20205;-78
2021/03/23 13:11:15;;;;;;;7.90;5.20;;;16.10;68.70;;;;;;5106004;28;20186;-77
2021/03/23 13:13:47;;;;;;;6.83;5.27;;;14.90;64.90;;;;;;5116097;28;20158;-77
2021/03/23 13:16:13;;;;;;;8.00;5.27;;;13.90;71.00;;;;;;5115489;28;20194;-77
2021/03/23 13:18:39;;;;;;;6.30;5.00;;;12.50;71.00;;;;;;5114320;28;20172;-77
2021/03/23 13:21:07;;;;;;;7.90;5.40;;;13.00;72.10;;;;;;5095924;28;20184;-77
2021/03/23 13:23:55;;;;;;;8.70;5.13;;;13.10;69.70;;;;;;5094543;28;21002;-77
2021/03/23 13:26:23;;;;;;;6.67;5.20;;;12.40;71.90;;;;;;5095656;28;20214;-77
2021/03/23 13:28:55;;;;;;;7.80;4.87;;;12.40;74.50;;;;;;5095428;28;20264;-76
2021/03/23 13:31:23;;;;;;;7.70;5.13;;;12.30;71.80;;;;;;5095984;28;20166;-77
2021/03/23 13:33:49;;;;;;;13.70;5.80;;;11.60;72.90;;;;;;5115910;27;20592;-77
2021/03/23 13:36:33;;;;;;;10.27;6.07;;;11.10;75.20;;;;;;5114643;28;20257;-76
2021/03/23 13:39:06;;;;;;;7.93;4.90;;;11.50;75.10;;;;;;5115708;28;20245;-77
2021/03/23 13:41:32;;;;;;;7.20;4.67;;;13.20;73.50;;;;;;5116122;28;20192;-77
2021/03/23 13:44:05;;;;;;;7.27;4.83;;;14.30;70.80;;;;;;5117427;28;20175;-78
2021/03/23 13:46:42;;;;;;;9.00;4.93;;;15.20;63.00;;;;;;5116589;28;20266;-77
2021/03/23 13:49:08;;;;;;;5.40;4.37;;;14.40;64.90;;;;;;5117150;28;20602;-78
2021/03/23 13:51:34;;;;;;;9.10;5.33;;;15.30;66.80;;;;;;5117481;28;20174;-78
2021/03/23 13:54:01;;;;;;;9.87;6.37;;;15.00;68.60;;;;;;5117290;28;20616;-78
2021/03/23 13:56:28;;;;;;;8.77;5.00;;;15.20;64.60;;;;;;5118549;27;20286;-78
2021/03/23 13:58:56;;;;;;;6.00;4.70;;;15.70;62.60;;;;;;5118293;28;20228;-78
2021/03/23 14:01:21;;;;;;;9.23;5.03;;;15.50;63.50;;;;;;5117346;28;20186;-78
2021/03/23 14:03:49;;;;;;;6.87;4.53;;;15.90;59.40;;;;;;5117880;28;20250;-78
2021/03/23 14:06:22;;;;;;;5.70;4.50;;;16.40;58.90;;;;;;5118110;28;20248;-78
2021/03/23 14:08:49;;;;;;;5.80;4.53;;;16.50;59.70;;;;;;5118349;28;20164;-78
2021/03/23 14:11:17;;;;;;;12.07;4.87;;;16.20;58.50;;;;;;5109635;28;20199;-78
2021/03/23 14:13:44;;;;;;;8.87;5.07;;;14.80;58.50;;;;;;5110734;28;20176;-78
2021/03/23 14:16:10;;;;;;;6.50;4.73;;;14.40;62.60;;;;;;5118377;28;20269;-79
2021/03/23 14:18:35;;;;;;;6.93;5.00;;;14.10;61.50;;;;;;5117484;28;20215;-78
2021/03/23 14:21:01;;;;;;;8.47;4.70;;;13.90;63.60;;;;;;5118202;28;20537;-78
2021/03/23 14:23:38;;;;;;;9.43;5.07;;;13.70;64.20;;;;;;5107458;28;20680;-77
2021/03/23 14:26:06;;;;;;;6.67;5.00;;;12.90;66.70;;;;;;5095391;28;20224;-78
2021/03/23 14:28:38;;;;;;;6.50;4.50;;;13.10;66.50;;;;;;5097497;28;20167;-78
2021/03/23 14:31:05;;;;;;;6.73;4.83;;;13.90;63.20;;;;;;5095471;28;20265;-78
2021/03/23 14:33:31;;;;;;;9.00;5.30;;;13.90;63.80;;;;;;5098062;28;20181;-78
2021/03/23 14:35:58;;;;;;;8.20;5.47;;;14.30;63.60;;;;;;5098288;28;20248;-78
2021/03/23 14:38:27;;;;;;;9.57;5.07;;;13.60;62.30;;;;;;5097075;28;20189;-78
2021/03/23 14:40:55;;;;;;;8.83;5.17;;;13.40;64.30;;;;;;5097582;28;20167;-78
2021/03/23 14:43:22;;;;;;;6.63;4.60;;;14.10;63.50;;;;;;5097027;28;20170;-78
2021/03/23 14:45:50;;;;;;;6.60;4.63;;;14.20;63.40;;;;;;5098100;28;20180;-78
2021/03/23 14:48:18;;;;;;;7.20;5.30;;;14.60;61.50;;;;;;5097481;28;20604;-78
2021/03/23 14:50:44;;;;;;;8.17;5.47;;;14.40;61.60;;;;;;5098700;28;20629;-78
2021/03/23 14:53:17;;;;;;;7.37;5.23;;;14.30;61.90;;;;;;5099230;28;20173;-78
2021/03/23 14:55:43;;;;;;;12.57;5.10;;;14.70;60.90;;;;;;5098108;28;20163;-78
2021/03/23 14:58:12;;;;;;;10.33;5.07;;;14.20;61.70;;;;;;5098604;28;20189;-79
2021/03/23 15:00:40;;;;;;;10.80;4.83;;;14.00;62.50;;;;;;5100389;28;20558;-79
2021/03/23 15:03:11;;;;;;;11.50;5.43;;;14.00;61.70;;;;;;5101809;28;20178;-79
2021/03/23 15:05:37;;;;;;;10.13;5.73;;;13.90;61.80;;;;;;5102331;28;20539;-79
2021/03/23 15:08:07;;;;;;;6.77;5.53;;;14.10;62.30;;;;;;5102414;28;20210;-79
2021/03/23 15:10:36;;;;;;;5.73;4.40;;;14.30;59.80;;;;;;5104108;28;20163;-79
2021/03/23 15:13:03;;;;;;;8.53;4.77;;;13.60;60.20;;;;;;5102325;28;20167;-78
2021/03/23 15:15:32;;;;;;;8.90;5.33;;;13.30;61.30;;;;;;5101075;28;20179;-79
2021/03/23 15:17:57;;;;;;;7.27;5.33;;;12.90;62.30;;;;;;5097874;28;20288;-78
2021/03/23 15:20:26;;;;;;;8.53;5.33;;;13.00;63.40;;;;;;5097064;28;20658;-78
2021/03/23 15:22:52;;;;;;;8.00;5.20;;;13.30;62.80;;;;;;5096826;28;20189;-78
2021/03/23 15:25:23;;;;;;;7.77;5.17;;;13.50;60.60;;;;;;5096561;28;20180;-78
2021/03/23 15:27:49;;;;;;;7.37;4.90;;;13.80;60.50;;;;;;5097679;28;20220;-78
2021/03/23 15:30:18;;;;;;;7.23;5.33;;;13.40;60.50;;;;;;5097812;28;20170;-78
2021/03/23 15:32:44;;;;;;;6.80;5.33;;;13.40;62.80;;;;;;5097199;28;20181;-78
2021/03/23 15:35:10;;;;;;;8.37;4.90;;;12.90;61.20;;;;;;5096287;28;20175;-77
2021/03/23 15:37:36;;;;;;;6.97;4.77;;;12.00;63.60;;;;;;5095581;28;20765;-78
2021/03/23 15:40:04;;;;;;;8.57;5.43;;;10.80;67.20;;;;;;5098626;28;20200;-78
2021/03/23 15:42:30;;;;;;;8.23;4.97;;;9.70;72.20;;;;;;5099340;28;20172;-78
2021/03/23 15:44:55;;;;;;;9.13;6.33;;;9.00;74.60;;;;;;5098437;28;20176;-78
2021/03/23 15:47:21;;;;;;;13.83;6.53;;;8.60;78.80;;;;;;5098985;28;20564;-77
2021/03/23 15:49:47;;;;;;;8.13;5.50;;;8.20;81.90;;;;;;5097823;28;20208;-78
2021/03/23 15:52:13;;;;;;;9.37;5.20;;;7.80;83.70;;;;;;5098933;28;20172;-78
2021/03/23 15:54:40;;;;;;;9.33;5.97;;;7.50;85.10;;;;;;5097242;28;20180;-78